San Francisco, California
Traffic Map
Current Weather Conditions
San Francisco, California
Scattered Clouds
Scattered Clouds
52°
Feels Like: 52°
Wind Chill: 52° Ceiling: Unl
Heat Index: 52° Visibility: 10mi
Dew Point: 50° Wind: 12mph
Humidity: 93% Direction: 290° (WNW)
Pressure: 30.04in Gusts: 0mph
Raw Report DataKSFO 030756Z 29010KT 10SM FEW009 SCT100 11/10 A3004 RMK AO2 SLP173 T01110100 401830106
Traffic Incident Summary
Active as of:
Severity:
Category:
InformationThere was an issue retrieving the traffic information for this location. Please try a different location or try again shortly.
Advertisements
Track Severe Weather on mobile